Hundvaag 1 weather for Jan 2009
Month no. 259
Obs.
Da.
Temp. Dew Point Precip. Wind
Speed
Wind gusts Cloud cover Press. Humidity Wind dir. Sunny OPT
01.01.2009 1,1   0,0 1,6   3 1027,0 89,0 45,0 1 62,5 %
02.01.2009 -2,1   0,0 0,0   7 1032,1 80,0 45,0 1 70,0 %
03.01.2009 6,0   3,1 8,0   4 1015,8 97,0 180,0 1 62,5 %
04.01.2009 0,5   0,2 0,0   10 1013,8 96,0 45,0 1 80,0 %
05.01.2009 -5,7   0,0 0,0   10 1027,0 75,0 45,0 1 75,0 %
06.01.2009 2,8   0,0 0,0   0 1018,8 80,0 90,0   57,5 %
07.01.2009 -0,9   7,2 1,6   10 1014,8 80,0 315,0 1 72,5 %
08.01.2009 5,8   5,0 1,6   0 1016,1 97,0 202,5   57,5 %
09.01.2009 7,6   2,2 1,6   0 1018,8 97,0 157,5   62,5 %
10.01.2009 5,4   1,0 1,6   4 1020,5 92,0 135,0 1 70,0 %
11.01.2009 7,3   4,0 3,2   0 1005,6 96,0 202,5   57,5 %
12.01.2009 8,3   29,0 4,8   0 993,5 98,0 157,5   37,5 %
13.01.2009 6,8   5,5 1,6   3 996,2 94,0 180,0 1 65,0 %
14.01.2009 3,9   0,5 0,0   7 1008,0 80,0 315,0 1 75,0 %
15.01.2009 3,6   0,0 1,6   2 1016,5 73,0 135,0   62,5 %
16.01.2009 2,4   0,0 8,0   2 1017,5 69,0 90,0   55,0 %
17.01.2009 3,8   0,0 8,0   3 1009,0 67,0 135,0 1 60,0 %
18.01.2009 4,9   5,0 8,0   0 988,0 84,0 67,5   50,0 %
19.01.2009 4,7   17,4 3,2   5 986,3 91,0 157,5 1 57,5 %
20.01.2009 3,6   0,0 4,8   1 976,9 71,0 90,0   57,5 %
21.01.2009 4,9   17,8 4,8   2 990,7 95,0 180,0   47,5 %
22.01.2009 4,3   21,2 4,8   4 995,8 86,0 157,5 1 47,5 %
23.01.2009 4,1   1,0 1,6   1 978,9 77,0 180,0   60,0 %
24.01.2009 3,4   0,0 4,8   0 978,6 67,0 180,0   55,0 %
25.01.2009 3,3   0,4 0,0   7 991,4 86,0 157,5 1 75,0 %
26.01.2009 3,9   0,0 0,0   3 1002,6 62,0 180,0 1 65,0 %
27.01.2009 2,4   0,0 3,2   0 1012,1 76,0 157,5   55,0 %
28.01.2009 3,4   1,5 4,8   0 1013,4 92,0 157,5 1 55,0 %
29.01.2009 4,6   0,7 0,0   0 1022,2 86,0 135,0   57,5 %
30.01.2009 -0,9   0,0 0,0   10 1025,6 90,0 157,5 1 77,5 %
31.01.2009 -1,7   0,0 1,6   5 1026,6 76,0 157,5 1 65,0 %
Avrg/Sum 3,3   122,7 2,7   3,3 1007,7 83,8 148,1 17 61,5 %